createdAt,value
2024-04-24T00:02:33.235Z,51.39
2024-04-24T00:05:38.089Z,51.91
2024-04-24T00:08:42.823Z,52.34
2024-04-24T00:11:47.454Z,52.08
2024-04-24T00:14:55.035Z,52.42
2024-04-24T00:17:59.653Z,51.83
2024-04-24T00:21:04.403Z,51.11
2024-04-24T00:24:09.283Z,51.91
2024-04-24T00:27:14.311Z,52.07
2024-04-24T00:30:21.875Z,52.00
2024-04-24T00:33:26.530Z,51.62
2024-04-24T00:36:31.664Z,51.47
2024-04-24T00:39:36.341Z,52.46
2024-04-24T00:42:40.887Z,52.14
2024-04-24T00:45:48.358Z,53.59
2024-04-24T00:48:54.134Z,53.46
2024-04-24T00:51:58.907Z,54.08
2024-04-24T00:55:03.445Z,54.86
2024-04-24T00:58:08.851Z,54.92
2024-04-24T01:01:18.415Z,55.59
2024-04-24T01:04:23.253Z,55.10
2024-04-24T01:07:28.222Z,54.76
2024-04-24T01:10:33.216Z,54.87
2024-04-24T01:13:38.153Z,55.00
2024-04-24T01:16:48.419Z,54.26
2024-04-24T01:19:56.157Z,55.26
2024-04-24T01:23:32.117Z,52.99
2024-04-24T01:26:47.880Z,53.98
2024-04-24T01:29:53.189Z,54.78
2024-04-24T01:32:58.192Z,53.91
2024-04-24T01:36:03.167Z,54.57
2024-04-24T01:39:08.193Z,54.59
2024-04-24T01:42:15.660Z,53.69
2024-04-24T01:45:20.739Z,53.90
2024-04-24T01:48:25.519Z,55.14
2024-04-24T01:51:30.228Z,55.77
2024-04-24T01:54:34.900Z,54.82
2024-04-24T01:57:42.264Z,54.65
2024-04-24T02:00:46.884Z,55.24
2024-04-24T02:03:51.995Z,54.87
2024-04-24T02:06:56.590Z,54.95
2024-04-24T02:10:01.445Z,54.90
2024-04-24T02:13:08.648Z,53.27
2024-04-24T02:16:13.347Z,54.25
2024-04-24T02:19:17.860Z,54.81
2024-04-24T02:22:22.773Z,53.78
2024-04-24T02:25:39.147Z,54.09
2024-04-24T02:28:46.320Z,53.84
2024-04-24T02:31:51.019Z,53.09
2024-04-24T02:34:55.734Z,52.86
2024-04-24T02:38:00.509Z,53.01
2024-04-24T02:41:05.063Z,52.44
2024-04-24T02:44:12.461Z,52.01
2024-04-24T02:47:17.536Z,51.90
2024-04-24T02:50:22.263Z,52.06
2024-04-24T02:53:27.087Z,52.00
2024-04-24T02:56:31.784Z,51.23
2024-04-24T02:59:39.195Z,49.62
2024-04-24T03:02:43.800Z,50.42
2024-04-24T03:05:48.604Z,50.43
2024-04-24T03:08:55.406Z,49.86
2024-04-24T03:12:00.245Z,50.08
2024-04-24T03:15:08.655Z,50.74
2024-04-24T03:18:13.311Z,50.77
2024-04-24T03:21:23.353Z,51.05
2024-04-24T03:24:28.215Z,50.83
2024-04-24T03:27:32.901Z,51.04
2024-04-24T03:30:40.101Z,49.88
2024-04-24T03:33:44.855Z,50.98
2024-04-24T03:36:50.154Z,52.27
2024-04-24T03:39:54.839Z,50.09
2024-04-24T03:42:59.587Z,51.09
2024-04-24T03:46:07.135Z,50.97
2024-04-24T03:49:11.836Z,51.20
2024-04-24T03:52:16.520Z,49.58
2024-04-24T03:55:21.493Z,49.63
2024-04-24T03:58:26.086Z,50.67
2024-04-24T04:01:34.539Z,51.16
2024-04-24T04:04:39.088Z,51.68
2024-04-24T04:07:44.007Z,51.32
2024-04-24T04:10:49.242Z,51.14
2024-04-24T04:13:55.162Z,51.15
2024-04-24T04:17:02.693Z,51.86
2024-04-24T04:20:08.325Z,50.90
2024-04-24T04:23:13.740Z,49.79
2024-04-24T04:26:18.514Z,51.04
2024-04-24T04:29:23.174Z,51.56
2024-04-24T04:32:30.671Z,51.11
2024-04-24T04:35:35.267Z,51.39
2024-04-24T04:38:39.915Z,50.91
2024-04-24T04:41:44.401Z,50.39
2024-04-24T04:44:49.121Z,51.15
2024-04-24T04:47:56.398Z,51.32
2024-04-24T04:51:03.974Z,51.66
2024-04-24T04:54:08.757Z,51.98
2024-04-24T04:57:13.397Z,51.75
2024-04-24T05:00:18.350Z,51.51
2024-04-24T05:03:25.778Z,51.36
2024-04-24T05:06:30.723Z,50.88
2024-04-24T05:09:36.659Z,50.25
2024-04-24T05:12:41.478Z,50.60
2024-04-24T05:15:46.000Z,50.29
2024-04-24T05:18:54.457Z,50.07
2024-04-24T05:21:59.195Z,50.69
2024-04-24T05:25:03.756Z,50.09
2024-04-24T05:28:26.198Z,49.37
2024-04-24T05:31:30.808Z,50.06
2024-04-24T05:34:38.389Z,49.51
2024-04-24T05:37:43.057Z,49.96
2024-04-24T05:40:47.757Z,49.81
2024-04-24T05:43:52.314Z,49.54
2024-04-24T05:46:58.523Z,49.44
2024-04-24T05:50:06.138Z,48.37
2024-04-24T05:53:11.034Z,48.59
2024-04-24T05:56:15.802Z,48.96
2024-04-24T05:59:20.962Z,49.00
2024-04-24T06:02:25.645Z,48.85
2024-04-24T06:05:32.982Z,48.16
2024-04-24T06:08:37.660Z,48.23
2024-04-24T06:11:42.619Z,48.12
2024-04-24T06:14:47.440Z,47.19
2024-04-24T06:17:54.886Z,47.25
2024-04-24T06:21:04.125Z,46.26
2024-04-24T06:24:12.521Z,46.21
2024-04-24T06:27:17.697Z,45.46
2024-04-24T06:30:22.398Z,46.12
2024-04-24T06:33:27.167Z,46.13
2024-04-24T06:36:34.522Z,45.01
2024-04-24T06:39:39.455Z,45.11
2024-04-24T06:42:44.004Z,44.31
2024-04-24T06:45:49.051Z,44.83
2024-04-24T06:48:53.826Z,44.49
2024-04-24T06:52:01.029Z,43.78
2024-04-24T06:55:05.748Z,44.50
2024-04-24T06:58:10.238Z,43.81
2024-04-24T07:01:15.114Z,43.96
2024-04-24T07:04:19.866Z,43.22
2024-04-24T07:07:27.365Z,43.99
2024-04-24T07:10:32.068Z,43.84
2024-04-24T07:13:36.814Z,44.20
2024-04-24T07:16:42.615Z,44.14
2024-04-24T07:19:48.105Z,44.16
2024-04-24T07:22:55.952Z,42.29
2024-04-24T07:26:01.052Z,42.97
2024-04-24T07:29:06.171Z,42.90
2024-04-24T07:32:11.137Z,42.92
2024-04-24T07:35:16.574Z,41.84
2024-04-24T07:38:24.288Z,41.91
2024-04-24T07:41:28.996Z,41.08
2024-04-24T07:44:33.728Z,40.85
2024-04-24T07:47:42.823Z,40.66
2024-04-24T07:50:48.511Z,40.16
2024-04-24T07:53:55.907Z,39.90
2024-04-24T07:57:00.751Z,39.28
2024-04-24T08:00:05.668Z,39.85
2024-04-24T08:03:10.641Z,40.15
2024-04-24T08:06:15.198Z,39.38
2024-04-24T08:09:22.707Z,38.85
2024-04-24T08:12:27.549Z,38.89
2024-04-24T08:15:34.413Z,39.42
2024-04-24T08:18:39.797Z,38.89
2024-04-24T08:21:44.535Z,39.22
2024-04-24T08:24:52.098Z,38.86
2024-04-24T08:27:56.634Z,40.15
2024-04-24T08:31:09.943Z,39.83
2024-04-24T08:34:16.329Z,39.76
2024-04-24T08:37:20.996Z,39.61
2024-04-24T08:40:28.474Z,39.94
2024-04-24T08:43:33.248Z,40.96
2024-04-24T08:46:38.043Z,39.92
2024-04-24T08:49:45.738Z,40.15
2024-04-24T08:52:56.563Z,40.92
2024-04-24T08:56:07.971Z,40.92
2024-04-24T08:59:19.325Z,41.31
2024-04-24T09:02:28.673Z,40.44
2024-04-24T09:05:37.209Z,40.69
2024-04-24T09:08:43.838Z,39.94
2024-04-24T09:11:52.289Z,39.84
2024-04-24T09:14:57.115Z,39.08
2024-04-24T09:18:01.996Z,38.25
2024-04-24T09:21:08.168Z,38.90
2024-04-24T09:24:14.398Z,38.98
2024-04-24T09:27:23.478Z,39.73
2024-04-24T09:30:31.432Z,39.59
2024-04-24T09:33:36.267Z,40.90
2024-04-24T09:36:43.367Z,40.74
2024-04-24T09:39:48.398Z,40.16
2024-04-24T09:42:56.057Z,39.79
2024-04-24T09:46:01.236Z,40.01
2024-04-24T09:49:07.636Z,40.50
2024-04-24T09:52:17.878Z,39.55
2024-04-24T09:55:29.300Z,39.54
2024-04-24T09:58:39.029Z,41.42
2024-04-24T10:01:48.196Z,41.34
2024-04-24T10:04:59.068Z,40.81
2024-04-24T10:08:08.936Z,40.35
2024-04-24T10:11:17.330Z,41.54
2024-04-24T10:14:27.052Z,39.72
2024-04-24T10:17:33.539Z,39.76
2024-04-24T10:20:40.727Z,38.92
2024-04-24T10:23:45.697Z,39.98
2024-04-24T10:26:52.947Z,38.50
2024-04-24T10:30:00.480Z,38.44
2024-04-24T10:33:08.001Z,37.65
2024-04-24T10:36:12.928Z,37.22
2024-04-24T10:39:17.993Z,35.89
2024-04-24T10:42:22.800Z,38.17
2024-04-24T10:45:30.824Z,37.07
2024-04-24T10:49:00.922Z,37.68
2024-04-24T10:52:06.294Z,37.85
2024-04-24T10:55:12.789Z,37.95
2024-04-24T10:58:24.579Z,37.32
2024-04-24T11:01:42.489Z,38.27
2024-04-24T11:04:55.509Z,38.24
2024-04-24T11:08:02.109Z,38.63
2024-04-24T11:11:08.780Z,37.50
2024-04-24T11:14:15.295Z,37.97
2024-04-24T11:17:27.598Z,37.44
2024-04-24T11:20:37.769Z,37.82
2024-04-24T11:23:49.313Z,37.03
2024-04-24T11:26:53.955Z,37.24
2024-04-24T11:29:58.921Z,36.91
2024-04-24T11:33:06.665Z,37.03
2024-04-24T11:36:11.441Z,36.94
2024-04-24T11:39:20.084Z,36.61
2024-04-24T11:42:26.075Z,35.77
2024-04-24T11:45:30.838Z,35.50
2024-04-24T11:48:46.749Z,35.63
2024-04-24T11:51:55.088Z,35.03
2024-04-24T11:54:59.580Z,34.79
2024-04-24T11:58:11.813Z,34.22
2024-04-24T12:01:19.123Z,34.63
2024-04-24T12:04:27.458Z,34.70
2024-04-24T12:07:33.092Z,33.71
2024-04-24T12:10:38.185Z,34.31
2024-04-24T12:13:44.125Z,35.18
2024-04-24T12:16:49.330Z,35.22
2024-04-24T12:19:56.949Z,35.44
2024-04-24T12:23:03.145Z,36.52
2024-04-24T12:26:08.787Z,36.30
2024-04-24T12:29:15.632Z,35.99
2024-04-24T12:32:21.507Z,37.56
2024-04-24T12:35:29.281Z,37.59
2024-04-24T12:38:34.014Z,36.53
2024-04-24T12:41:38.836Z,36.43
2024-04-24T12:44:45.064Z,35.71
2024-04-24T12:47:50.009Z,35.76
2024-04-24T12:50:57.915Z,36.24
2024-04-24T12:54:03.099Z,36.32
2024-04-24T12:57:09.859Z,34.00
2024-04-24T13:00:18.378Z,34.49
2024-04-24T13:03:26.523Z,34.88
2024-04-24T13:06:34.751Z,35.47
2024-04-24T13:09:39.469Z,34.68
2024-04-24T13:12:46.548Z,34.97
2024-04-24T13:15:51.721Z,35.49
2024-04-24T13:18:56.851Z,35.75
2024-04-24T13:22:05.246Z,34.48
2024-04-24T13:25:10.453Z,35.31
2024-04-24T13:28:14.981Z,35.74
2024-04-24T13:31:19.749Z,35.60
2024-04-24T13:34:24.674Z,34.61
2024-04-24T13:37:31.831Z,34.48
2024-04-24T13:40:36.545Z,33.87
2024-04-24T13:43:41.483Z,35.15
2024-04-24T13:46:46.156Z,34.92
2024-04-24T13:49:51.110Z,34.73
2024-04-24T13:52:58.557Z,34.74
2024-04-24T13:56:03.950Z,33.64
2024-04-24T13:59:08.538Z,34.21
2024-04-24T14:02:13.345Z,34.89
2024-04-24T14:05:18.125Z,35.08
2024-04-24T14:08:27.819Z,35.44
2024-04-24T14:11:34.608Z,35.15
2024-04-24T14:14:39.771Z,36.52
2024-04-24T14:17:44.866Z,36.83
2024-04-24T14:20:49.937Z,36.66
2024-04-24T14:23:59.142Z,35.88
2024-04-24T14:27:03.731Z,35.52
2024-04-24T14:30:09.689Z,35.01
2024-04-24T14:33:14.325Z,35.49
2024-04-24T14:36:20.456Z,35.29
2024-04-24T14:39:30.141Z,36.05
2024-04-24T14:42:34.884Z,36.89
2024-04-24T14:45:39.597Z,37.72
2024-04-24T14:48:44.491Z,37.71
2024-04-24T14:51:49.961Z,37.96
2024-04-24T14:54:57.469Z,38.60
2024-04-24T14:58:02.252Z,38.48
2024-04-24T15:01:08.184Z,38.49
2024-04-24T15:04:14.544Z,38.29
2024-04-24T15:07:19.473Z,38.96
2024-04-24T15:10:27.394Z,41.56
2024-04-24T15:13:31.956Z,40.85
2024-04-24T15:16:36.668Z,41.77
2024-04-24T15:19:42.424Z,42.19
2024-04-24T15:22:48.002Z,42.64
2024-04-24T15:25:55.898Z,40.52
2024-04-24T15:29:00.763Z,41.52
2024-04-24T15:32:05.804Z,40.82
2024-04-24T15:35:10.925Z,43.22
2024-04-24T15:38:17.078Z,44.95
2024-04-24T15:41:24.350Z,46.20
2024-04-24T15:44:29.090Z,47.88
2024-04-24T15:47:34.125Z,50.25
2024-04-24T15:50:39.387Z,48.79
2024-04-24T15:53:44.200Z,48.90
2024-04-24T15:56:51.652Z,50.97
2024-04-24T15:59:56.889Z,53.20
2024-04-24T16:03:01.751Z,52.45
2024-04-24T16:06:06.933Z,55.26
2024-04-24T16:09:11.583Z,58.87
2024-04-24T16:12:19.047Z,57.21
2024-04-24T16:15:23.603Z,57.56
2024-04-24T16:18:36.238Z,61.85
2024-04-24T16:21:47.418Z,62.97
2024-04-24T16:24:52.279Z,63.85
2024-04-24T16:27:59.703Z,65.88
2024-04-24T16:31:04.237Z,64.85
2024-04-24T16:34:09.189Z,66.08
2024-04-24T16:37:13.880Z,65.98
2024-04-24T16:40:18.564Z,66.57
2024-04-24T16:43:25.894Z,66.39
2024-04-24T16:46:30.580Z,66.95
2024-04-24T16:49:36.860Z,66.86
2024-04-24T16:52:41.557Z,66.71
2024-04-24T16:55:48.451Z,66.61
2024-04-24T16:58:57.155Z,66.64
2024-04-24T17:02:02.289Z,66.16
2024-04-24T17:05:11.130Z,66.12
2024-04-24T17:08:16.463Z,65.97
2024-04-24T17:11:21.351Z,67.62
2024-04-24T17:14:30.825Z,68.52
2024-04-24T17:17:36.483Z,68.63
2024-04-24T17:20:42.063Z,69.28
2024-04-24T17:23:47.249Z,68.69
2024-04-24T17:26:52.990Z,69.48
2024-04-24T17:30:00.348Z,68.70
2024-04-24T17:33:04.990Z,68.94
2024-04-24T17:36:12.580Z,69.78
2024-04-24T17:39:17.555Z,70.89
2024-04-24T17:42:22.114Z,70.78
2024-04-24T17:45:30.377Z,71.71
2024-04-24T17:48:35.266Z,72.41
2024-04-24T17:51:40.361Z,72.18
2024-04-24T17:54:44.972Z,72.58
2024-04-24T17:57:49.628Z,71.81
2024-04-24T18:00:57.087Z,71.21
2024-04-24T18:04:01.807Z,71.80
2024-04-24T18:07:06.400Z,71.63
2024-04-24T18:10:11.396Z,72.69
2024-04-24T18:13:16.824Z,73.41
2024-04-24T18:16:23.948Z,72.65
2024-04-24T18:19:28.860Z,73.38
2024-04-24T18:22:33.433Z,73.74
2024-04-24T18:25:38.604Z,73.37
2024-04-24T18:28:43.256Z,73.18
2024-04-24T18:31:50.872Z,73.81
2024-04-24T18:34:55.497Z,74.03
2024-04-24T18:38:00.604Z,74.45
2024-04-24T18:41:05.312Z,74.56
2024-04-24T18:44:10.496Z,74.18
2024-04-24T18:47:19.624Z,74.69
2024-04-24T18:50:25.930Z,74.31
2024-04-24T18:53:30.609Z,74.90
2024-04-24T18:56:35.498Z,75.65
2024-04-24T18:59:40.731Z,75.13
2024-04-24T19:02:49.734Z,74.94
2024-04-24T19:05:54.936Z,74.69
2024-04-24T19:09:00.162Z,74.94
2024-04-24T19:12:06.148Z,75.09
2024-04-24T19:15:11.935Z,75.61
2024-04-24T19:18:19.285Z,75.21
2024-04-24T19:21:23.931Z,75.03
2024-04-24T19:24:28.501Z,75.40
2024-04-24T19:27:40.564Z,75.30
2024-04-24T19:30:46.457Z,75.79
2024-04-24T19:33:53.942Z,74.92
2024-04-24T19:36:58.965Z,75.78
2024-04-24T19:40:04.662Z,74.96
2024-04-24T19:43:09.516Z,75.36
2024-04-24T19:46:14.075Z,75.18
2024-04-24T19:49:21.974Z,75.16
2024-04-24T19:52:26.574Z,75.30
2024-04-24T19:55:36.113Z,75.85
2024-04-24T19:58:41.143Z,75.53
2024-04-24T20:01:49.371Z,76.28
2024-04-24T20:04:56.812Z,75.51
2024-04-24T20:08:01.784Z,76.03
2024-04-24T20:11:08.462Z,75.74
2024-04-24T20:14:14.339Z,75.67
2024-04-24T20:17:20.557Z,75.79
2024-04-24T20:20:30.602Z,75.94
2024-04-24T20:23:36.141Z,75.84
2024-04-24T20:26:41.511Z,75.98
2024-04-24T20:29:46.373Z,77.12
2024-04-24T20:32:51.984Z,76.25
2024-04-24T20:36:01.827Z,76.21
2024-04-24T20:39:10.354Z,75.45
2024-04-24T20:42:15.599Z,75.15
2024-04-24T20:45:21.076Z,75.89
2024-04-24T20:48:26.580Z,75.55
2024-04-24T20:51:34.259Z,76.00
2024-04-24T20:54:41.178Z,76.36
2024-04-24T20:57:46.230Z,75.71
2024-04-24T21:00:51.921Z,76.13
2024-04-24T21:03:57.409Z,75.62
2024-04-24T21:07:17.502Z,75.40
2024-04-24T21:10:22.864Z,75.46
2024-04-24T21:13:28.558Z,74.53
2024-04-24T21:16:33.587Z,73.55
2024-04-24T21:19:38.374Z,74.47
2024-04-24T21:22:48.137Z,74.40
2024-04-24T21:25:53.104Z,74.87
2024-04-24T21:28:57.833Z,75.40
2024-04-24T21:32:02.775Z,74.51
2024-04-24T21:35:07.934Z,73.65
2024-04-24T21:38:15.461Z,73.46
2024-04-24T21:41:21.987Z,73.62
2024-04-24T21:44:27.363Z,73.31
2024-04-24T21:47:32.241Z,73.71
2024-04-24T21:50:37.360Z,73.81
2024-04-24T21:53:45.365Z,74.53
2024-04-24T21:56:50.301Z,74.32
2024-04-24T21:59:55.103Z,74.57
2024-04-24T22:03:00.150Z,74.43
2024-04-24T22:06:05.187Z,75.82
2024-04-24T22:09:12.526Z,75.09
2024-04-24T22:12:17.494Z,74.68
2024-04-24T22:15:22.818Z,75.56
2024-04-24T22:18:29.352Z,75.36
2024-04-24T22:21:53.970Z,75.35
2024-04-24T22:25:01.948Z,75.50
2024-04-24T22:28:07.462Z,75.97
2024-04-24T22:31:14.472Z,76.14
2024-04-24T22:34:19.882Z,75.57
2024-04-24T22:37:24.879Z,76.42
2024-04-24T22:40:33.766Z,75.75
2024-04-24T22:43:39.706Z,75.08
2024-04-24T22:46:44.713Z,75.04
2024-04-24T22:49:49.818Z,75.40
2024-04-24T22:52:54.855Z,74.87
2024-04-24T22:56:02.554Z,75.10
2024-04-24T22:59:07.710Z,74.64
2024-04-24T23:02:13.076Z,75.03
2024-04-24T23:05:18.069Z,74.83
2024-04-24T23:08:24.955Z,74.33
2024-04-24T23:11:33.424Z,74.69
2024-04-24T23:14:38.602Z,74.84
2024-04-24T23:17:45.324Z,74.93
2024-04-24T23:20:50.575Z,74.58
2024-04-24T23:23:55.504Z,74.79
2024-04-24T23:27:02.714Z,75.28
2024-04-24T23:30:08.468Z,75.29
2024-04-24T23:33:13.074Z,75.12
2024-04-24T23:36:17.805Z,75.26
2024-04-24T23:39:22.530Z,75.16
2024-04-24T23:42:29.908Z,74.77
2024-04-24T23:45:35.514Z,75.05
2024-04-24T23:48:40.350Z,75.38
2024-04-24T23:55:07.589Z,73.93
2024-04-24T23:58:15.656Z,74.68
